sensor_id;sensor_type;location;lat;lon;timestamp;pressure;altitude;pressure_sealevel;temperature;humidity
19600;BME280;9947;57.722;12.012;2023-01-28T00:02:17;102104.44;;;0.48;100.00
19600;BME280;9947;57.722;12.012;2023-01-28T00:04:52;102102.59;;;0.51;100.00
19600;BME280;9947;57.722;12.012;2023-01-28T00:07:29;102092.84;;;0.55;100.00
19600;BME280;9947;57.722;12.012;2023-01-28T00:09:56;102086.63;;;0.54;100.00
19600;BME280;9947;57.722;12.012;2023-01-28T00:12:31;102093.69;;;0.57;100.00
19600;BME280;9947;57.722;12.012;2023-01-28T00:15:06;102081.28;;;0.56;100.00
19600;BME280;9947;57.722;12.012;2023-01-28T00:17:40;102094.53;;;0.60;100.00
19600;BME280;9947;57.722;12.012;2023-01-28T00:20:10;102080.31;;;0.61;100.00
19600;BME280;9947;57.722;12.012;2023-01-28T00:22:46;102082.88;;;0.68;100.00
19600;BME280;9947;57.722;12.012;2023-01-28T00:25:20;102076.69;;;0.67;100.00
19600;BME280;9947;57.722;12.012;2023-01-28T00:27:48;102075.84;;;0.64;100.00
19600;BME280;9947;57.722;12.012;2023-01-28T00:30:22;102069.63;;;0.65;100.00
19600;BME280;9947;57.722;12.012;2023-01-28T00:32:49;102071.50;;;0.58;100.00
19600;BME280;9947;57.722;12.012;2023-01-28T00:35:24;102060.00;;;0.56;100.00
19600;BME280;9947;57.722;12.012;2023-01-28T00:37:50;102056.34;;;0.63;100.00
19600;BME280;9947;57.722;12.012;2023-01-28T00:40:24;102051.91;;;0.62;100.00
19600;BME280;9947;57.722;12.012;2023-01-28T00:42:54;102055.41;;;0.66;100.00
19600;BME280;9947;57.722;12.012;2023-01-28T00:45:38;102046.56;;;0.64;100.00
19600;BME280;9947;57.722;12.012;2023-01-28T00:48:08;102047.38;;;0.69;100.00
19600;BME280;9947;57.722;12.012;2023-01-28T00:50:43;102040.31;;;0.68;100.00
19600;BME280;9947;57.722;12.012;2023-01-28T00:53:16;102023.38;;;0.72;100.00
19600;BME280;9947;57.722;12.012;2023-01-28T00:55:49;102024.28;;;0.71;100.00
19600;BME280;9947;57.722;12.012;2023-01-28T00:58:16;102026.97;;;0.69;100.00
19600;BME280;9947;57.722;12.012;2023-01-28T01:00:50;102012.88;;;0.63;100.00
19600;BME280;9947;57.722;12.012;2023-01-28T01:03:18;102014.69;;;0.60;100.00
19600;BME280;9947;57.722;12.012;2023-01-28T01:05:56;102011.06;;;0.66;100.00
19600;BME280;9947;57.722;12.012;2023-01-28T01:08:30;102006.44;;;0.76;100.00
19600;BME280;9947;57.722;12.012;2023-01-28T01:11:06;102000.28;;;0.74;100.00
19600;BME280;9947;57.722;12.012;2023-01-28T01:13:33;102002.88;;;0.77;100.00
19600;BME280;9947;57.722;12.012;2023-01-28T01:16:09;102005.47;;;0.83;100.00
19600;BME280;9947;57.722;12.012;2023-01-28T01:18:58;101991.19;;;0.88;100.00
19600;BME280;9947;57.722;12.012;2023-01-28T01:21:34;101985.97;;;0.82;100.00
19600;BME280;9947;57.722;12.012;2023-01-28T01:24:01;101972.63;;;0.84;100.00
19600;BME280;9947;57.722;12.012;2023-01-28T01:26:42;101992.25;;;0.78;100.00
19600;BME280;9947;57.722;12.012;2023-01-28T01:29:12;101985.97;;;0.82;100.00
19600;BME280;9947;57.722;12.012;2023-01-28T01:31:45;101971.69;;;0.86;100.00
19600;BME280;9947;57.722;12.012;2023-01-28T01:34:19;101965.38;;;0.92;100.00
19600;BME280;9947;57.722;12.012;2023-01-28T01:36:48;101970.63;;;0.97;100.00
19600;BME280;9947;57.722;12.012;2023-01-28T01:39:24;101969.75;;;0.96;100.00
19600;BME280;9947;57.722;12.012;2023-01-28T01:41:57;101954.59;;;1.00;100.00
19600;BME280;9947;57.722;12.012;2023-01-28T01:44:56;101949.22;;;1.01;100.00
19600;BME280;9947;57.722;12.012;2023-01-28T01:47:35;101953.66;;;1.02;100.00
19600;BME280;9947;57.722;12.012;2023-01-28T01:50:09;101956.28;;;1.04;100.00
19600;BME280;9947;57.722;12.012;2023-01-28T01:52:49;101956.41;;;0.98;100.00
19600;BME280;9947;57.722;12.012;2023-01-28T01:55:24;101956.38;;;0.99;100.00
19600;BME280;9947;57.722;12.012;2023-01-28T01:57:55;101957.16;;;1.06;100.00
19600;BME280;9947;57.722;12.012;2023-01-28T02:00:30;101959.84;;;1.03;100.00
19600;BME280;9947;57.722;12.012;2023-01-28T02:02:57;101956.28;;;1.04;100.00
19600;BME280;9947;57.722;12.012;2023-01-28T02:05:31;101944.72;;;1.06;100.00
19600;BME280;9947;57.722;12.012;2023-01-28T02:08:00;101939.19;;;1.17;100.00
19600;BME280;9947;57.722;12.012;2023-01-28T02:10:52;101940.97;;;1.16;100.00
19600;BME280;9947;57.722;12.012;2023-01-28T02:13:29;101933.78;;;1.20;100.00
19600;BME280;9947;57.722;12.012;2023-01-28T02:16:10;101933.63;;;1.28;100.00
19600;BME280;9947;57.722;12.012;2023-01-28T02:18:38;101931.06;;;1.23;100.00
19600;BME280;9947;57.722;12.012;2023-01-28T02:27:21;101911.47;;;1.26;100.00
19600;BME280;9947;57.722;12.012;2023-01-28T02:30:02;101917.69;;;1.26;100.00
19600;BME280;9947;57.722;12.012;2023-01-28T02:32:36;101909.59;;;1.32;100.00
19600;BME280;9947;57.722;12.012;2023-01-28T02:35:16;101911.44;;;1.27;100.00
19600;BME280;9947;57.722;12.012;2023-01-28T02:37:52;101904.38;;;1.26;100.00
19600;BME280;9947;57.722;12.012;2023-01-28T02:40:29;101904.25;;;1.34;100.00
19600;BME280;9947;57.722;12.012;2023-01-28T02:42:58;101898.97;;;1.29;100.00
19600;BME280;9947;57.722;12.012;2023-01-28T02:45:34;101898.03;;;1.33;100.00
19600;BME280;9947;57.722;12.012;2023-01-28T02:48:25;101891.75;;;1.36;100.00
19600;BME280;9947;57.722;12.012;2023-01-28T02:51:02;101890.00;;;1.35;100.00
19600;BME280;9947;57.722;12.012;2023-01-28T02:53:40;101890.88;;;1.35;100.00
19600;BME280;9947;57.722;12.012;2023-01-28T02:56:18;101890.88;;;1.35;100.00
19600;BME280;9947;57.722;12.012;2023-01-28T02:58:59;101897.03;;;1.39;100.00
19600;BME280;9947;57.722;12.012;2023-01-28T03:01:49;101886.38;;;1.39;100.00
19600;BME280;9947;57.722;12.012;2023-01-28T03:04:27;101882.63;;;1.47;100.00
19600;BME280;9947;57.722;12.012;2023-01-28T03:07:06;101875.59;;;1.45;100.00
19600;BME280;9947;57.722;12.012;2023-01-28T03:09:47;101874.66;;;1.46;100.00
19600;BME280;9947;57.722;12.012;2023-01-28T03:12:18;101869.41;;;1.43;100.00
19600;BME280;9947;57.722;12.012;2023-01-28T03:15:13;101869.31;;;1.47;100.00
19600;BME280;9947;57.722;12.012;2023-01-28T03:18:02;101861.31;;;1.47;100.00
19600;BME280;9947;57.722;12.012;2023-01-28T03:20:58;101868.34;;;1.50;100.00
19600;BME280;9947;57.722;12.012;2023-01-28T03:23:49;101861.16;;;1.53;100.00
19600;BME280;9947;57.722;12.012;2023-01-28T03:26:51;101855.88;;;1.52;100.00
19600;BME280;9947;57.722;12.012;2023-01-28T03:29:41;101850.59;;;1.50;100.00
19600;BME280;9947;57.722;12.012;2023-01-28T03:32:33;101853.25;;;1.50;100.00
19600;BME280;9947;57.722;12.012;2023-01-28T03:35:29;101847.88;;;1.52;100.00
19600;BME280;9947;57.722;12.012;2023-01-28T03:38:21;101838.06;;;1.54;100.00
19600;BME280;9947;57.722;12.012;2023-01-28T03:41:08;101835.50;;;1.49;100.00
19600;BME280;9947;57.722;12.012;2023-01-28T03:43:35;101843.50;;;1.49;100.00
19600;BME280;9947;57.722;12.012;2023-01-28T03:46:09;101845.16;;;1.57;100.00
19600;BME280;9947;57.722;12.012;2023-01-28T03:48:36;101841.53;;;1.59;100.00
19600;BME280;9947;57.722;12.012;2023-01-28T03:51:12;101838.00;;;1.59;100.00
19600;BME280;9947;57.722;12.012;2023-01-28T03:53:39;101831.91;;;1.52;100.00
19600;BME280;9947;57.722;12.012;2023-01-28T03:56:13;101836.34;;;1.51;100.00
19600;BME280;9947;57.722;12.012;2023-01-28T03:58:42;101831.00;;;1.51;100.00
19600;BME280;9947;57.722;12.012;2023-01-28T04:01:19;101839.00;;;1.51;100.00
19600;BME280;9947;57.722;12.012;2023-01-28T04:03:46;101840.72;;;1.54;100.00
19600;BME280;9947;57.722;12.012;2023-01-28T04:06:20;101827.34;;;1.59;100.00
19600;BME280;9947;57.722;12.012;2023-01-28T04:08:54;101827.38;;;1.57;100.00
19600;BME280;9947;57.722;12.012;2023-01-28T04:11:30;101830.91;;;1.56;100.00
19600;BME280;9947;57.722;12.012;2023-01-28T04:14:03;101831.69;;;1.63;100.00
19600;BME280;9947;57.722;12.012;2023-01-28T04:16:40;101829.00;;;1.63;100.00
19600;BME280;9947;57.722;12.012;2023-01-28T04:19:14;101832.50;;;1.65;100.00
19600;BME280;9947;57.722;12.012;2023-01-28T04:21:50;101814.69;;;1.67;100.00
19600;BME280;9947;57.722;12.012;2023-01-28T04:24:18;101825.25;;;1.71;100.00
19600;BME280;9947;57.722;12.012;2023-01-28T04:26:52;101827.91;;;1.71;100.00
19600;BME280;9947;57.722;12.012;2023-01-28T04:29:25;101824.41;;;1.69;100.00
19600;BME280;9947;57.722;12.012;2023-01-28T04:31:58;101812.03;;;1.67;100.00
19600;BME280;9947;57.722;12.012;2023-01-28T04:34:25;101816.50;;;1.66;100.00
19600;BME280;9947;57.722;12.012;2023-01-28T04:37:00;101806.63;;;1.70;100.00
19600;BME280;9947;57.722;12.012;2023-01-28T04:39:26;101799.69;;;1.63;100.00
19600;BME280;9947;57.722;12.012;2023-01-28T04:42:07;101805.75;;;1.69;100.00
19600;BME280;9947;57.722;12.012;2023-01-28T04:44:40;101807.56;;;1.67;100.00
19600;BME280;9947;57.722;12.012;2023-01-28T04:47:13;101803.00;;;1.72;100.00
19600;BME280;9947;57.722;12.012;2023-01-28T04:49:46;101803.94;;;1.71;100.00
19600;BME280;9947;57.722;12.012;2023-01-28T04:52:14;101787.06;;;1.71;100.00
19600;BME280;9947;57.722;12.012;2023-01-28T04:54:41;101794.94;;;1.75;100.00
19600;BME280;9947;57.722;12.012;2023-01-28T04:57:14;101789.53;;;1.78;100.00
19600;BME280;9947;57.722;12.012;2023-01-28T04:59:47;101771.72;;;1.80;100.00
19600;BME280;9947;57.722;12.012;2023-01-28T05:02:20;101770.78;;;1.81;100.00
19600;BME280;9947;57.722;12.012;2023-01-28T05:04:54;101777.88;;;1.84;100.00
19600;BME280;9947;57.722;12.012;2023-01-28T05:07:30;101753.00;;;1.83;100.00
19600;BME280;9947;57.722;12.012;2023-01-28T05:09:57;101757.41;;;1.84;100.00
19600;BME280;9947;57.722;12.012;2023-01-28T05:12:30;101742.19;;;1.90;100.00
19600;BME280;9947;57.722;12.012;2023-01-28T05:15:04;101748.53;;;1.84;100.00
19600;BME280;9947;57.722;12.012;2023-01-28T05:17:37;101734.28;;;1.85;100.00
19600;BME280;9947;57.722;12.012;2023-01-28T05:20:12;101734.22;;;1.88;100.00
19600;BME280;9947;57.722;12.012;2023-01-28T05:22:47;101747.34;;;1.96;100.00
19600;BME280;9947;57.722;12.012;2023-01-28T05:25:21;101746.50;;;1.94;100.00
19600;BME280;9947;57.722;12.012;2023-01-28T05:27:54;101739.31;;;1.97;100.00
19600;BME280;9947;57.722;12.012;2023-01-28T05:30:21;101740.19;;;1.98;100.00
19600;BME280;9947;57.722;12.012;2023-01-28T05:32:55;101742.81;;;1.99;100.00
19600;BME280;9947;57.722;12.012;2023-01-28T05:35:28;101736.69;;;1.96;100.00
19600;BME280;9947;57.722;12.012;2023-01-28T05:37:56;101734.97;;;1.93;100.00
19600;BME280;9947;57.722;12.012;2023-01-28T05:40:30;101736.97;;;1.85;100.00
19600;BME280;9947;57.722;12.012;2023-01-28T05:42:57;101735.25;;;1.82;100.00
19600;BME280;9947;57.722;12.012;2023-01-28T05:45:30;101757.38;;;1.86;100.00
19600;BME280;9947;57.722;12.012;2023-01-28T05:48:04;101749.34;;;1.88;100.00
19600;BME280;9947;57.722;12.012;2023-01-28T05:50:37;101744.00;;;1.88;100.00
19600;BME280;9947;57.722;12.012;2023-01-28T05:53:06;101742.09;;;1.93;100.00
19600;BME280;9947;57.722;12.012;2023-01-28T05:55:39;101740.31;;;1.93;100.00
19600;BME280;9947;57.722;12.012;2023-01-28T05:58:06;101739.44;;;1.93;100.00
19600;BME280;9947;57.722;12.012;2023-01-28T06:00:39;101747.47;;;1.91;100.00
19600;BME280;9947;57.722;12.012;2023-01-28T06:03:13;101759.06;;;1.90;100.00
19600;BME280;9947;57.722;12.012;2023-01-28T06:05:40;101753.63;;;1.93;100.00
19600;BME280;9947;57.722;12.012;2023-01-28T06:08:15;101750.22;;;1.88;100.00
19600;BME280;9947;57.722;12.012;2023-01-28T06:10:48;101762.47;;;1.95;100.00
19600;BME280;9947;57.722;12.012;2023-01-28T06:13:21;101759.13;;;1.87;100.00
19600;BME280;9947;57.722;12.012;2023-01-28T06:15:54;101741.09;;;1.97;100.00
19600;BME280;9947;57.722;12.012;2023-01-28T06:18:21;101755.44;;;1.93;100.00
19600;BME280;9947;57.722;12.012;2023-01-28T06:20:48;101750.13;;;1.91;100.00
19600;BME280;9947;57.722;12.012;2023-01-28T06:23:22;101760.97;;;1.85;100.00
19600;BME280;9947;57.722;12.012;2023-01-28T06:25:52;101747.63;;;1.85;100.00
19600;BME280;9947;57.722;12.012;2023-01-28T06:28:25;101752.81;;;1.91;100.00
19600;BME280;9947;57.722;12.012;2023-01-28T06:30:52;101741.06;;;1.98;100.00
19600;BME280;9947;57.722;12.012;2023-01-28T06:33:26;101741.78;;;2.05;100.00
19600;BME280;9947;57.722;12.012;2023-01-28T06:36:01;101739.97;;;2.05;100.00
19600;BME280;9947;57.722;12.012;2023-01-28T06:38:35;101728.63;;;1.97;100.00
19600;BME280;9947;57.722;12.012;2023-01-28T06:41:09;101725.97;;;1.97;100.00
19600;BME280;9947;57.722;12.012;2023-01-28T06:43:36;101734.06;;;1.94;100.00
19600;BME280;9947;57.722;12.012;2023-01-28T06:46:09;101728.69;;;1.96;100.00
19600;BME280;9947;57.722;12.012;2023-01-28T06:48:36;101724.31;;;1.93;100.00
19600;BME280;9947;57.722;12.012;2023-01-28T06:51:09;101741.84;;;2.02;100.00
19600;BME280;9947;57.722;12.012;2023-01-28T06:53:37;101744.84;;;1.90;100.00
19600;BME280;9947;57.722;12.012;2023-01-28T06:56:11;101744.81;;;1.91;100.00
19600;BME280;9947;57.722;12.012;2023-01-28T06:58:38;101752.72;;;1.94;100.00
19600;BME280;9947;57.722;12.012;2023-01-28T07:01:22;101746.31;;;2.01;100.00
19600;BME280;9947;57.722;12.012;2023-01-28T07:03:49;101745.63;;;1.93;100.00
19600;BME280;9947;57.722;12.012;2023-01-28T07:06:22;101731.19;;;2.02;100.00
19600;BME280;9947;57.722;12.012;2023-01-28T07:08:50;101739.19;;;2.02;100.00
19600;BME280;9947;57.722;12.012;2023-01-28T07:11:24;101720.41;;;2.06;100.00
19600;BME280;9947;57.722;12.012;2023-01-28T07:13:51;101722.16;;;2.07;100.00
19600;BME280;9947;57.722;12.012;2023-01-28T07:16:24;101720.34;;;2.08;100.00
19600;BME280;9947;57.722;12.012;2023-01-28T07:18:51;101735.56;;;2.04;100.00
19600;BME280;9947;57.722;12.012;2023-01-28T07:21:24;101723.94;;;2.07;100.00
19600;BME280;9947;57.722;12.012;2023-01-28T07:23:52;101739.94;;;2.08;100.00
19600;BME280;9947;57.722;12.012;2023-01-28T07:26:26;101737.13;;;2.13;100.00
19600;BME280;9947;57.722;12.012;2023-01-28T07:28:59;101735.22;;;2.18;100.00
19600;BME280;9947;57.722;12.012;2023-01-28T07:31:32;101744.09;;;2.19;100.00
19600;BME280;9947;57.722;12.012;2023-01-28T07:33:59;101744.19;;;2.15;100.00
19600;BME280;9947;57.722;12.012;2023-01-28T07:36:32;101746.75;;;2.19;100.00
19600;BME280;9947;57.722;12.012;2023-01-28T07:39:01;101754.81;;;2.17;100.00
19600;BME280;9947;57.722;12.012;2023-01-28T07:41:41;101744.19;;;2.15;100.00
19600;BME280;9947;57.722;12.012;2023-01-28T07:44:14;101740.44;;;2.23;100.00
19600;BME280;9947;57.722;12.012;2023-01-28T07:46:47;101734.13;;;2.25;100.00
19600;BME280;9947;57.722;12.012;2023-01-28T07:49:14;101729.59;;;2.29;100.00
19600;BME280;9947;57.722;12.012;2023-01-28T07:51:47;101726.34;;;2.17;100.00
19600;BME280;9947;57.722;12.012;2023-01-28T07:54:16;101727.06;;;2.24;100.00
19600;BME280;9947;57.722;12.012;2023-01-28T07:56:50;101718.97;;;2.27;100.00
19600;BME280;9947;57.722;12.012;2023-01-28T07:59:24;101731.25;;;2.33;100.00
19600;BME280;9947;57.722;12.012;2023-01-28T08:01:57;101724.28;;;2.27;100.00
19600;BME280;9947;57.722;12.012;2023-01-28T08:04:25;101731.47;;;2.25;100.00
19600;BME280;9947;57.722;12.012;2023-01-28T08:06:59;101732.16;;;2.32;100.00
19600;BME280;9947;57.722;12.012;2023-01-28T08:09:34;101726.59;;;2.41;100.00
19600;BME280;9947;57.722;12.012;2023-01-28T08:12:07;101720.34;;;2.42;100.00
19600;BME280;9947;57.722;12.012;2023-01-28T08:14:40;101705.09;;;2.47;100.00
19600;BME280;9947;57.722;12.012;2023-01-28T08:17:13;101706.03;;;2.44;100.00
19600;BME280;9947;57.722;12.012;2023-01-28T08:19:40;101701.53;;;2.46;100.00
19600;BME280;9947;57.722;12.012;2023-01-28T08:22:13;101707.56;;;2.53;100.00
19600;BME280;9947;57.722;12.012;2023-01-28T08:24:41;101692.25;;;2.61;100.00
19600;BME280;9947;57.722;12.012;2023-01-28T08:27:21;101699.94;;;2.72;100.00
19600;BME280;9947;57.722;12.012;2023-01-28T08:29:54;101699.06;;;2.71;100.00
19600;BME280;9947;57.722;12.012;2023-01-28T08:32:27;101690.06;;;2.74;100.00
19600;BME280;9947;57.722;12.012;2023-01-28T08:34:54;101680.59;;;2.93;100.00
19600;BME280;9947;57.722;12.012;2023-01-28T08:37:30;101680.47;;;2.98;100.00
19600;BME280;9947;57.722;12.012;2023-01-28T08:39:58;101694.75;;;2.97;100.00
19600;BME280;9947;57.722;12.012;2023-01-28T08:42:31;101684.25;;;2.91;100.00
19600;BME280;9947;57.722;12.012;2023-01-28T08:45:06;101681.97;;;3.06;100.00
19600;BME280;9947;57.722;12.012;2023-01-28T08:47:33;101685.47;;;3.08;100.00
19600;BME280;9947;57.722;12.012;2023-01-28T08:50:08;101691.00;;;3.02;100.00
19600;BME280;9947;57.722;12.012;2023-01-28T08:52:35;101677.50;;;3.07;100.00
19600;BME280;9947;57.722;12.012;2023-01-28T08:55:16;101678.53;;;3.03;100.00
19600;BME280;9947;57.722;12.012;2023-01-28T08:57:50;101691.63;;;3.10;100.00
19600;BME280;9947;57.722;12.012;2023-01-28T09:00:24;101691.56;;;3.14;100.00
19600;BME280;9947;57.722;12.012;2023-01-28T09:02:52;101690.06;;;3.03;100.00
19600;BME280;9947;57.722;12.012;2023-01-28T09:05:25;101690.03;;;3.05;100.00
19600;BME280;9947;57.722;12.012;2023-01-28T09:07:52;101678.63;;;3.00;100.00
19600;BME280;9947;57.722;12.012;2023-01-28T09:10:34;101671.81;;;2.90;100.00
19600;BME280;9947;57.722;12.012;2023-01-28T09:13:05;101677.84;;;2.96;100.00
19600;BME280;9947;57.722;12.012;2023-01-28T09:15:38;101668.13;;;2.94;100.00
19600;BME280;9947;57.722;12.012;2023-01-28T09:18:05;101668.84;;;2.99;100.00
19600;BME280;9947;57.722;12.012;2023-01-28T09:20:41;101657.06;;;3.06;100.00
19600;BME280;9947;57.722;12.012;2023-01-28T09:23:11;101650.78;;;3.07;100.00
19600;BME280;9947;57.722;12.012;2023-01-28T09:25:47;101642.78;;;3.07;100.00
19600;BME280;9947;57.722;12.012;2023-01-28T09:28:13;101654.06;;;3.17;100.00
19600;BME280;9947;57.722;12.012;2023-01-28T09:30:47;101654.84;;;3.20;100.00
19600;BME280;9947;57.722;12.012;2023-01-28T09:33:14;101650.47;;;3.18;100.00
19600;BME280;9947;57.722;12.012;2023-01-28T09:35:48;101651.91;;;3.28;100.00
19600;BME280;9947;57.722;12.012;2023-01-28T09:38:15;101642.91;;;3.30;100.00
19600;BME280;9947;57.722;12.012;2023-01-28T09:40:50;101653.47;;;3.35;100.00
19600;BME280;9947;57.722;12.012;2023-01-28T09:43:44;101640.34;;;3.27;100.00
19600;BME280;9947;57.722;12.012;2023-01-28T09:46:29;101633.00;;;3.34;100.00
19600;BME280;9947;57.722;12.012;2023-01-28T09:49:14;101634.13;;;3.27;100.00
19600;BME280;9947;57.722;12.012;2023-01-28T09:51:56;101625.56;;;3.17;100.00
19600;BME280;9947;57.722;12.012;2023-01-28T09:54:28;101625.66;;;3.14;100.00
19600;BME280;9947;57.722;12.012;2023-01-28T09:57:08;101634.53;;;3.15;100.00
19600;BME280;9947;57.722;12.012;2023-01-28T09:59:44;101642.00;;;3.03;100.00
19600;BME280;9947;57.722;12.012;2023-01-28T10:02:28;101632.91;;;3.09;100.00
19600;BME280;9947;57.722;12.012;2023-01-28T10:05:10;101627.19;;;3.21;100.00
19600;BME280;9947;57.722;12.012;2023-01-28T10:07:52;101635.47;;;3.12;100.00
19600;BME280;9947;57.722;12.012;2023-01-28T10:10:29;101626.31;;;3.21;100.00
19600;BME280;9947;57.722;12.012;2023-01-28T10:13:16;101626.44;;;3.18;100.00
19600;BME280;9947;57.722;12.012;2023-01-28T10:15:50;101623.09;;;3.09;100.00
19600;BME280;9947;57.722;12.012;2023-01-28T10:18:32;101621.22;;;3.13;100.00
19600;BME280;9947;57.722;12.012;2023-01-28T10:21:05;101618.22;;;3.24;100.00
19600;BME280;9947;57.722;12.012;2023-01-28T10:23:55;101616.63;;;3.18;100.00
19600;BME280;9947;57.722;12.012;2023-01-28T10:26:33;101608.59;;;3.18;100.00
19600;BME280;9947;57.722;12.012;2023-01-28T10:29:18;101617.22;;;3.26;100.00
19600;BME280;9947;57.722;12.012;2023-01-28T10:31:51;101624.53;;;3.21;100.00
19600;BME280;9947;57.722;12.012;2023-01-28T10:34:32;101614.09;;;3.12;100.00
19600;BME280;9947;57.722;12.012;2023-01-28T10:36:59;101609.75;;;3.09;100.00
19600;BME280;9947;57.722;12.012;2023-01-28T10:39:32;101618.31;;;3.21;100.00
19600;BME280;9947;57.722;12.012;2023-01-28T10:41:59;101619.94;;;3.25;100.00
19600;BME280;9947;57.722;12.012;2023-01-28T10:44:37;101610.28;;;3.21;100.00
19600;BME280;9947;57.722;12.012;2023-01-28T10:47:12;101619.13;;;3.23;100.00
19600;BME280;9947;57.722;12.012;2023-01-28T10:49:52;101603.16;;;3.21;100.00
19600;BME280;9947;57.722;12.012;2023-01-28T10:52:28;101604.75;;;3.27;100.00
19600;BME280;9947;57.722;12.012;2023-01-28T10:54:59;101605.72;;;3.24;100.00
19600;BME280;9947;57.722;12.012;2023-01-28T10:57:33;101610.28;;;3.21;100.00
19600;BME280;9947;57.722;12.012;2023-01-28T11:00:12;101604.78;;;3.25;100.00
19600;BME280;9947;57.722;12.012;2023-01-28T11:02:55;101611.88;;;3.26;100.00
19600;BME280;9947;57.722;12.012;2023-01-28T11:05:26;101597.81;;;3.21;100.00
19600;BME280;9947;57.722;12.012;2023-01-28T11:08:05;101590.19;;;3.35;100.00
19600;BME280;9947;57.722;12.012;2023-01-28T11:10:34;101573.81;;;3.20;100.00
19600;BME280;9947;57.722;12.012;2023-01-28T11:13:15;101567.22;;;3.30;100.00
19600;BME280;9947;57.722;12.012;2023-01-28T11:16:02;101560.41;;;3.21;100.00
19600;BME280;9947;57.722;12.012;2023-01-28T11:18:39;101550.16;;;3.34;100.00
19600;BME280;9947;57.722;12.012;2023-01-28T11:21:22;101548.94;;;3.44;100.00
19600;BME280;9947;57.722;12.012;2023-01-28T11:23:59;101544.47;;;3.45;100.00
19600;BME280;9947;57.722;12.012;2023-01-28T11:26:35;101524.13;;;3.40;100.00
19600;BME280;9947;57.722;12.012;2023-01-28T11:29:03;101521.16;;;3.48;100.00
19600;BME280;9947;57.722;12.012;2023-01-28T11:31:40;101528.44;;;3.45;100.00
19600;BME280;9947;57.722;12.012;2023-01-28T11:34:15;101535.22;;;3.28;100.00
19600;BME280;9947;57.722;12.012;2023-01-28T11:36:51;101541.63;;;3.23;100.00
19600;BME280;9947;57.722;12.012;2023-01-28T11:39:21;101536.25;;;3.24;100.00
19600;BME280;9947;57.722;12.012;2023-01-28T11:42:10;101522.34;;;3.15;100.00
19600;BME280;9947;57.722;12.012;2023-01-28T11:44:38;101518.63;;;3.19;100.00
19600;BME280;9947;57.722;12.012;2023-01-28T11:47:28;101508.59;;;3.25;100.00
19600;BME280;9947;57.722;12.012;2023-01-28T11:50:17;101506.81;;;3.26;100.00
19600;BME280;9947;57.722;12.012;2023-01-28T11:52:59;101502.06;;;3.34;100.00
19600;BME280;9947;57.722;12.012;2023-01-28T11:55:39;101488.56;;;3.38;100.00
19600;BME280;9947;57.722;12.012;2023-01-28T11:58:20;101482.88;;;3.48;100.00
19600;BME280;9947;57.722;12.012;2023-01-28T12:01:01;101487.34;;;3.47;100.00
19600;BME280;9947;57.722;12.012;2023-01-28T12:03:46;101493.63;;;3.46;100.00
19600;BME280;9947;57.722;12.012;2023-01-28T12:06:30;101494.44;;;3.48;100.00
19600;BME280;9947;57.722;12.012;2023-01-28T12:09:09;101487.72;;;3.36;100.00
19600;BME280;9947;57.722;12.012;2023-01-28T12:11:57;101488.44;;;3.42;100.00
19600;BME280;9947;57.722;12.012;2023-01-28T12:14:51;101497.94;;;3.50;100.00
19600;BME280;9947;57.722;12.012;2023-01-28T12:17:41;101479.03;;;3.55;100.00
19600;BME280;9947;57.722;12.012;2023-01-28T12:20:17;101505.56;;;3.61;100.00
19600;BME280;9947;57.722;12.012;2023-01-28T12:23:05;101502.22;;;3.54;100.00
19600;BME280;9947;57.722;12.012;2023-01-28T12:25:50;101503.09;;;3.55;100.00
19600;BME280;9947;57.722;12.012;2023-01-28T12:28:38;101508.56;;;3.52;100.00
19600;BME280;9947;57.722;12.012;2023-01-28T12:31:36;101506.66;;;3.55;100.00
19600;BME280;9947;57.722;12.012;2023-01-28T12:34:29;101471.63;;;3.63;100.00
19600;BME280;9947;57.722;12.012;2023-01-28T12:37:15;101455.06;;;3.77;100.00
19600;BME280;9947;57.722;12.012;2023-01-28T12:40:02;101452.28;;;3.80;100.00
19600;BME280;9947;57.722;12.012;2023-01-28T12:42:34;101441.34;;;3.86;100.00
19600;BME280;9947;57.722;12.012;2023-01-28T12:45:15;101440.31;;;3.90;100.00
19600;BME280;9947;57.722;12.012;2023-01-28T12:47:48;101443.63;;;3.96;100.00
19600;BME280;9947;57.722;12.012;2023-01-28T12:50:26;101440.97;;;3.96;100.00
19600;BME280;9947;57.722;12.012;2023-01-28T12:53:02;101443.81;;;3.92;100.00
19600;BME280;9947;57.722;12.012;2023-01-28T12:55:40;101438.22;;;3.98;100.00
19600;BME280;9947;57.722;12.012;2023-01-28T12:58:15;101439.03;;;4.00;100.00
19600;BME280;9947;57.722;12.012;2023-01-28T13:00:55;101438.09;;;4.01;100.00
19600;BME280;9947;57.722;12.012;2023-01-28T13:03:35;101440.59;;;4.06;100.00
19600;BME280;9947;57.722;12.012;2023-01-28T13:06:15;101431.34;;;4.14;100.00
19600;BME280;9947;57.722;12.012;2023-01-28T13:08:59;101426.78;;;4.16;100.00
19600;BME280;9947;57.722;12.012;2023-01-28T13:11:35;101436.94;;;4.08;100.00
19600;BME280;9947;57.722;12.012;2023-01-28T13:14:11;101449.19;;;4.14;100.00
19600;BME280;9947;57.722;12.012;2023-01-28T13:16:44;101434.88;;;4.15;100.00
19600;BME280;9947;57.722;12.012;2023-01-28T13:19:24;101426.50;;;4.24;100.00
19600;BME280;9947;57.722;12.012;2023-01-28T13:22:09;101408.88;;;4.40;100.00
19600;BME280;9947;57.722;12.012;2023-01-28T13:24:40;101409.09;;;4.57;100.00
19600;BME280;9947;57.722;12.012;2023-01-28T13:27:23;101416.91;;;4.84;100.00
19600;BME280;9947;57.722;12.012;2023-01-28T13:30:02;101402.66;;;4.61;100.00
19600;BME280;9947;57.722;12.012;2023-01-28T13:32:35;101397.31;;;4.61;100.00
19600;BME280;9947;57.722;12.012;2023-01-28T13:35:05;101389.06;;;4.66;100.00
19600;BME280;9947;57.722;12.012;2023-01-28T13:37:43;101390.34;;;4.57;100.00
19600;BME280;9947;57.722;12.012;2023-01-28T13:40:24;101373.56;;;4.74;100.00